KBRO

Brownsville / South Padre Island International Airport

Brownsville, Texas, USA
METAR KBRO 180053Z 34010G21KT 10SM OVC037 16/15 A3016 RMK AO2 RAE29 SLP212 P0001 T01610150
Observed Flight Rules
Oct-18 @ 00:53 UTC (22 minutes ago) Visual Flight Rules
Wind Visibility Clouds
340° at 10 knots
 Gusting to 21 knots
10 miles
  • Overcast at 3,700' AGL
Temperatures Readings Precipitation
Current 16°C / 61°F
Dewpoint 15°C / 59°F
Humidity 94%
Altimeter 30.16" Hg
Pressure 1021.2 hPa
Elevation 7
Current Rain 0.01
METAR KBRO 180053Z 34010G21KT 10SM OVC037 16/15 A3016 RMK AO2 RAE29 SLP212 P0001 T01610150
Observed Flight Rules
Oct-18 @ 00:53 UTC
(22 minutes ago)
VFR
Wind Visibility
340° at 10 knots
 Gusting to 21 knots
10 miles
Clouds
  • Overcast at 3,700' AGL
Temperature Dewpoint
16°C / 61°F 15°C / 59°F
Humidity Altimeter Pressure
94% 30.16" Hg 1021.2 hPa
Current Rain
0.01